sensor_id;sensor_type;location;lat;lon;timestamp;temperature;humidity
59128;DHT22;44912;52.754;5.994;2024-01-27T00:01:17;3.90;99.90
59128;DHT22;44912;52.754;5.994;2024-01-27T00:03:43;3.90;99.90
59128;DHT22;44912;52.754;5.994;2024-01-27T00:06:08;3.90;99.90
59128;DHT22;44912;52.754;5.994;2024-01-27T00:08:34;3.90;99.90
59128;DHT22;44912;52.754;5.994;2024-01-27T00:11:00;3.90;99.90
59128;DHT22;44912;52.754;5.994;2024-01-27T00:13:25;4.10;99.90
59128;DHT22;44912;52.754;5.994;2024-01-27T00:15:51;4.20;99.90
59128;DHT22;44912;52.754;5.994;2024-01-27T00:18:17;4.20;99.90
59128;DHT22;44912;52.754;5.994;2024-01-27T00:20:43;4.40;99.90
59128;DHT22;44912;52.754;5.994;2024-01-27T00:23:08;4.30;99.90
59128;DHT22;44912;52.754;5.994;2024-01-27T00:25:34;4.40;99.90
59128;DHT22;44912;52.754;5.994;2024-01-27T00:27:59;4.40;99.90
59128;DHT22;44912;52.754;5.994;2024-01-27T00:30:25;4.50;99.90
59128;DHT22;44912;52.754;5.994;2024-01-27T00:32:51;4.40;99.90
59128;DHT22;44912;52.754;5.994;2024-01-27T00:35:17;4.50;99.90
59128;DHT22;44912;52.754;5.994;2024-01-27T00:37:43;4.60;99.90
59128;DHT22;44912;52.754;5.994;2024-01-27T00:40:12;4.60;99.90
59128;DHT22;44912;52.754;5.994;2024-01-27T00:42:38;4.60;99.90
59128;DHT22;44912;52.754;5.994;2024-01-27T00:45:04;4.70;99.90
59128;DHT22;44912;52.754;5.994;2024-01-27T00:47:30;4.60;99.90
59128;DHT22;44912;52.754;5.994;2024-01-27T00:49:56;4.60;99.90
59128;DHT22;44912;52.754;5.994;2024-01-27T00:52:22;4.60;99.90
59128;DHT22;44912;52.754;5.994;2024-01-27T00:54:48;4.60;99.90
59128;DHT22;44912;52.754;5.994;2024-01-27T00:57:14;4.50;99.90
59128;DHT22;44912;52.754;5.994;2024-01-27T00:59:40;4.40;99.90
59128;DHT22;44912;52.754;5.994;2024-01-27T01:02:06;4.40;99.90
59128;DHT22;44912;52.754;5.994;2024-01-27T01:04:32;4.50;99.90
59128;DHT22;44912;52.754;5.994;2024-01-27T01:06:58;4.40;99.90
59128;DHT22;44912;52.754;5.994;2024-01-27T01:09:24;4.40;99.90
59128;DHT22;44912;52.754;5.994;2024-01-27T01:11:50;4.40;99.90
59128;DHT22;44912;52.754;5.994;2024-01-27T01:14:16;4.50;99.90
59128;DHT22;44912;52.754;5.994;2024-01-27T01:16:41;4.30;99.90
59128;DHT22;44912;52.754;5.994;2024-01-27T01:19:07;4.20;99.90
59128;DHT22;44912;52.754;5.994;2024-01-27T01:21:33;4.20;99.90
59128;DHT22;44912;52.754;5.994;2024-01-27T01:23:58;4.10;99.90
59128;DHT22;44912;52.754;5.994;2024-01-27T01:26:24;4.10;99.90
59128;DHT22;44912;52.754;5.994;2024-01-27T01:28:50;3.90;99.90
59128;DHT22;44912;52.754;5.994;2024-01-27T01:31:16;4.00;99.90
59128;DHT22;44912;52.754;5.994;2024-01-27T01:33:42;3.90;99.90
59128;DHT22;44912;52.754;5.994;2024-01-27T01:36:08;3.80;99.90
59128;DHT22;44912;52.754;5.994;2024-01-27T01:38:34;3.80;99.90
59128;DHT22;44912;52.754;5.994;2024-01-27T01:40:59;3.70;99.90
59128;DHT22;44912;52.754;5.994;2024-01-27T01:43:25;3.70;99.90
59128;DHT22;44912;52.754;5.994;2024-01-27T01:45:51;3.60;99.90
59128;DHT22;44912;52.754;5.994;2024-01-27T01:48:19;3.50;99.90
59128;DHT22;44912;52.754;5.994;2024-01-27T01:50:45;3.60;99.90
59128;DHT22;44912;52.754;5.994;2024-01-27T01:53:13;3.60;99.90
59128;DHT22;44912;52.754;5.994;2024-01-27T01:55:39;3.60;99.90
59128;DHT22;44912;52.754;5.994;2024-01-27T01:58:05;3.70;99.90
59128;DHT22;44912;52.754;5.994;2024-01-27T02:00:32;3.70;99.90
59128;DHT22;44912;52.754;5.994;2024-01-27T02:02:58;3.80;99.90
59128;DHT22;44912;52.754;5.994;2024-01-27T02:05:24;3.70;99.90
59128;DHT22;44912;52.754;5.994;2024-01-27T02:07:50;3.70;99.90
59128;DHT22;44912;52.754;5.994;2024-01-27T02:10:18;3.70;99.90
59128;DHT22;44912;52.754;5.994;2024-01-27T02:12:44;3.70;99.90
59128;DHT22;44912;52.754;5.994;2024-01-27T02:15:11;3.70;99.90
59128;DHT22;44912;52.754;5.994;2024-01-27T02:17:40;3.70;99.90
59128;DHT22;44912;52.754;5.994;2024-01-27T02:20:07;3.70;99.90
59128;DHT22;44912;52.754;5.994;2024-01-27T02:22:36;3.80;99.90
59128;DHT22;44912;52.754;5.994;2024-01-27T02:25:02;3.70;99.90
59128;DHT22;44912;52.754;5.994;2024-01-27T02:27:29;3.80;99.90
59128;DHT22;44912;52.754;5.994;2024-01-27T02:29:54;3.70;99.90
59128;DHT22;44912;52.754;5.994;2024-01-27T02:32:20;3.60;99.90
59128;DHT22;44912;52.754;5.994;2024-01-27T02:34:45;3.60;99.90
59128;DHT22;44912;52.754;5.994;2024-01-27T02:37:12;3.70;99.90
59128;DHT22;44912;52.754;5.994;2024-01-27T02:39:38;3.80;99.90
59128;DHT22;44912;52.754;5.994;2024-01-27T02:42:05;3.80;99.90
59128;DHT22;44912;52.754;5.994;2024-01-27T02:44:31;3.90;99.90
59128;DHT22;44912;52.754;5.994;2024-01-27T02:46:57;4.00;99.90
59128;DHT22;44912;52.754;5.994;2024-01-27T02:49:22;4.10;99.90
59128;DHT22;44912;52.754;5.994;2024-01-27T02:51:48;4.00;99.90
59128;DHT22;44912;52.754;5.994;2024-01-27T02:54:14;3.90;99.90
59128;DHT22;44912;52.754;5.994;2024-01-27T02:56:39;3.90;99.90
59128;DHT22;44912;52.754;5.994;2024-01-27T02:59:05;3.80;99.90
59128;DHT22;44912;52.754;5.994;2024-01-27T03:01:31;3.80;99.90
59128;DHT22;44912;52.754;5.994;2024-01-27T03:03:56;3.80;99.90
59128;DHT22;44912;52.754;5.994;2024-01-27T03:06:22;3.70;99.90
59128;DHT22;44912;52.754;5.994;2024-01-27T03:08:48;3.80;99.90
59128;DHT22;44912;52.754;5.994;2024-01-27T03:11:13;3.70;99.90
59128;DHT22;44912;52.754;5.994;2024-01-27T03:13:39;3.80;99.90
59128;DHT22;44912;52.754;5.994;2024-01-27T03:16:10;3.70;99.90
59128;DHT22;44912;52.754;5.994;2024-01-27T03:18:36;3.70;99.90
59128;DHT22;44912;52.754;5.994;2024-01-27T03:21:03;3.70;99.90
59128;DHT22;44912;52.754;5.994;2024-01-27T03:23:28;3.70;99.90
59128;DHT22;44912;52.754;5.994;2024-01-27T03:25:54;3.60;99.90
59128;DHT22;44912;52.754;5.994;2024-01-27T03:28:20;3.60;99.90
59128;DHT22;44912;52.754;5.994;2024-01-27T03:30:46;3.60;99.90
59128;DHT22;44912;52.754;5.994;2024-01-27T03:33:12;3.40;99.90
59128;DHT22;44912;52.754;5.994;2024-01-27T03:35:39;3.30;99.90
59128;DHT22;44912;52.754;5.994;2024-01-27T03:38:05;3.40;99.90
59128;DHT22;44912;52.754;5.994;2024-01-27T03:40:31;3.40;99.90
59128;DHT22;44912;52.754;5.994;2024-01-27T03:42:57;3.40;99.90
59128;DHT22;44912;52.754;5.994;2024-01-27T03:45:22;3.40;99.90
59128;DHT22;44912;52.754;5.994;2024-01-27T03:47:48;3.40;99.90
59128;DHT22;44912;52.754;5.994;2024-01-27T03:50:14;3.30;99.90
59128;DHT22;44912;52.754;5.994;2024-01-27T03:52:39;3.40;99.90
59128;DHT22;44912;52.754;5.994;2024-01-27T03:55:06;3.40;99.90
59128;DHT22;44912;52.754;5.994;2024-01-27T03:57:32;3.40;99.90
59128;DHT22;44912;52.754;5.994;2024-01-27T03:59:57;3.40;99.90
59128;DHT22;44912;52.754;5.994;2024-01-27T04:02:23;3.40;99.90
59128;DHT22;44912;52.754;5.994;2024-01-27T04:04:49;3.40;99.90
59128;DHT22;44912;52.754;5.994;2024-01-27T04:07:14;3.40;99.90
59128;DHT22;44912;52.754;5.994;2024-01-27T04:09:40;3.40;99.90
59128;DHT22;44912;52.754;5.994;2024-01-27T04:12:06;3.30;99.90
59128;DHT22;44912;52.754;5.994;2024-01-27T04:14:31;3.40;99.90
59128;DHT22;44912;52.754;5.994;2024-01-27T04:16:57;3.30;99.90
59128;DHT22;44912;52.754;5.994;2024-01-27T04:19:22;3.30;99.90
59128;DHT22;44912;52.754;5.994;2024-01-27T04:21:48;3.30;99.90
59128;DHT22;44912;52.754;5.994;2024-01-27T04:24:14;3.30;99.90
59128;DHT22;44912;52.754;5.994;2024-01-27T04:26:40;3.40;99.90
59128;DHT22;44912;52.754;5.994;2024-01-27T04:29:05;3.40;99.90
59128;DHT22;44912;52.754;5.994;2024-01-27T04:31:31;3.40;99.90
59128;DHT22;44912;52.754;5.994;2024-01-27T04:33:57;3.40;99.90
59128;DHT22;44912;52.754;5.994;2024-01-27T04:36:30;3.30;99.90
59128;DHT22;44912;52.754;5.994;2024-01-27T04:38:55;3.40;99.90
59128;DHT22;44912;52.754;5.994;2024-01-27T04:41:21;3.40;99.90
59128;DHT22;44912;52.754;5.994;2024-01-27T04:43:47;3.30;99.90
59128;DHT22;44912;52.754;5.994;2024-01-27T04:46:12;3.40;99.90
59128;DHT22;44912;52.754;5.994;2024-01-27T04:48:38;3.50;99.90
59128;DHT22;44912;52.754;5.994;2024-01-27T04:51:04;3.40;99.90
59128;DHT22;44912;52.754;5.994;2024-01-27T04:53:29;3.50;99.90
59128;DHT22;44912;52.754;5.994;2024-01-27T04:55:55;3.50;99.90
59128;DHT22;44912;52.754;5.994;2024-01-27T04:58:20;3.70;99.90
59128;DHT22;44912;52.754;5.994;2024-01-27T05:00:46;3.70;99.90
59128;DHT22;44912;52.754;5.994;2024-01-27T05:03:12;3.60;99.90
59128;DHT22;44912;52.754;5.994;2024-01-27T05:05:42;3.70;99.90
59128;DHT22;44912;52.754;5.994;2024-01-27T05:08:09;3.70;99.90
59128;DHT22;44912;52.754;5.994;2024-01-27T05:10:35;3.70;99.90
59128;DHT22;44912;52.754;5.994;2024-01-27T05:13:01;3.70;99.90
59128;DHT22;44912;52.754;5.994;2024-01-27T05:15:27;3.50;99.90
59128;DHT22;44912;52.754;5.994;2024-01-27T05:17:53;3.60;99.90
59128;DHT22;44912;52.754;5.994;2024-01-27T05:20:18;3.60;99.90
59128;DHT22;44912;52.754;5.994;2024-01-27T05:22:45;3.50;99.90
59128;DHT22;44912;52.754;5.994;2024-01-27T05:25:11;3.50;99.90
59128;DHT22;44912;52.754;5.994;2024-01-27T05:27:37;3.40;99.90
59128;DHT22;44912;52.754;5.994;2024-01-27T05:30:05;3.40;99.90
59128;DHT22;44912;52.754;5.994;2024-01-27T05:32:31;3.30;99.90
59128;DHT22;44912;52.754;5.994;2024-01-27T05:34:56;3.20;99.90
59128;DHT22;44912;52.754;5.994;2024-01-27T05:37:22;3.10;99.90
59128;DHT22;44912;52.754;5.994;2024-01-27T05:39:48;3.20;99.90
59128;DHT22;44912;52.754;5.994;2024-01-27T05:42:13;3.10;99.90
59128;DHT22;44912;52.754;5.994;2024-01-27T05:44:39;3.00;99.90
59128;DHT22;44912;52.754;5.994;2024-01-27T05:47:06;3.10;99.90
59128;DHT22;44912;52.754;5.994;2024-01-27T05:49:32;3.10;99.90
59128;DHT22;44912;52.754;5.994;2024-01-27T05:51:58;3.10;99.90
59128;DHT22;44912;52.754;5.994;2024-01-27T05:54:24;3.00;99.90
59128;DHT22;44912;52.754;5.994;2024-01-27T05:56:50;2.90;99.90
59128;DHT22;44912;52.754;5.994;2024-01-27T05:59:15;2.90;99.90
59128;DHT22;44912;52.754;5.994;2024-01-27T06:01:41;2.90;99.90
59128;DHT22;44912;52.754;5.994;2024-01-27T06:04:09;2.80;99.90
59128;DHT22;44912;52.754;5.994;2024-01-27T06:06:38;2.80;99.90
59128;DHT22;44912;52.754;5.994;2024-01-27T06:09:04;2.80;99.90
59128;DHT22;44912;52.754;5.994;2024-01-27T06:11:30;2.80;99.90
59128;DHT22;44912;52.754;5.994;2024-01-27T06:13:56;2.80;99.90
59128;DHT22;44912;52.754;5.994;2024-01-27T06:16:21;2.80;99.90
59128;DHT22;44912;52.754;5.994;2024-01-27T06:18:48;2.90;99.90
59128;DHT22;44912;52.754;5.994;2024-01-27T06:21:14;2.90;99.90
59128;DHT22;44912;52.754;5.994;2024-01-27T06:23:39;2.90;99.90
59128;DHT22;44912;52.754;5.994;2024-01-27T06:26:06;2.80;99.90
59128;DHT22;44912;52.754;5.994;2024-01-27T06:28:32;2.90;99.90
59128;DHT22;44912;52.754;5.994;2024-01-27T06:30:58;2.90;99.90
59128;DHT22;44912;52.754;5.994;2024-01-27T06:33:23;2.90;99.90
59128;DHT22;44912;52.754;5.994;2024-01-27T06:35:49;3.00;99.90
59128;DHT22;44912;52.754;5.994;2024-01-27T06:38:14;3.00;99.90
59128;DHT22;44912;52.754;5.994;2024-01-27T06:40:40;2.90;99.90
59128;DHT22;44912;52.754;5.994;2024-01-27T06:43:06;3.00;99.90
59128;DHT22;44912;52.754;5.994;2024-01-27T06:45:31;2.90;99.90
59128;DHT22;44912;52.754;5.994;2024-01-27T06:47:57;2.90;99.90
59128;DHT22;44912;52.754;5.994;2024-01-27T06:50:23;3.00;99.90
59128;DHT22;44912;52.754;5.994;2024-01-27T06:52:48;3.10;99.90
59128;DHT22;44912;52.754;5.994;2024-01-27T06:55:14;3.00;99.90
59128;DHT22;44912;52.754;5.994;2024-01-27T06:57:39;3.00;99.90
59128;DHT22;44912;52.754;5.994;2024-01-27T07:00:06;3.00;99.90
59128;DHT22;44912;52.754;5.994;2024-01-27T07:02:32;3.00;99.90
59128;DHT22;44912;52.754;5.994;2024-01-27T07:04:58;3.00;99.90
59128;DHT22;44912;52.754;5.994;2024-01-27T07:07:27;3.10;99.90
59128;DHT22;44912;52.754;5.994;2024-01-27T07:09:57;3.00;99.90
59128;DHT22;44912;52.754;5.994;2024-01-27T07:12:23;2.90;99.90
59128;DHT22;44912;52.754;5.994;2024-01-27T07:14:49;2.90;99.90
59128;DHT22;44912;52.754;5.994;2024-01-27T07:17:15;2.90;99.90
59128;DHT22;44912;52.754;5.994;2024-01-27T07:19:40;2.80;99.90
59128;DHT22;44912;52.754;5.994;2024-01-27T07:22:06;2.90;99.90
59128;DHT22;44912;52.754;5.994;2024-01-27T07:24:31;3.00;99.90
59128;DHT22;44912;52.754;5.994;2024-01-27T07:26:59;2.90;99.90
59128;DHT22;44912;52.754;5.994;2024-01-27T07:29:25;2.90;99.90
59128;DHT22;44912;52.754;5.994;2024-01-27T07:31:50;2.90;99.90
59128;DHT22;44912;52.754;5.994;2024-01-27T07:34:16;2.90;99.90
59128;DHT22;44912;52.754;5.994;2024-01-27T07:36:42;2.90;99.90
59128;DHT22;44912;52.754;5.994;2024-01-27T07:39:07;2.80;99.90
59128;DHT22;44912;52.754;5.994;2024-01-27T07:41:34;2.80;99.90
59128;DHT22;44912;52.754;5.994;2024-01-27T07:44:10;2.60;99.90
59128;DHT22;44912;52.754;5.994;2024-01-27T07:46:37;2.60;99.90
59128;DHT22;44912;52.754;5.994;2024-01-27T07:49:02;2.60;99.90
59128;DHT22;44912;52.754;5.994;2024-01-27T07:51:28;2.60;99.90
59128;DHT22;44912;52.754;5.994;2024-01-27T07:53:54;2.60;99.90
59128;DHT22;44912;52.754;5.994;2024-01-27T07:56:20;2.70;99.90
59128;DHT22;44912;52.754;5.994;2024-01-27T07:58:45;2.70;99.90
59128;DHT22;44912;52.754;5.994;2024-01-27T08:01:14;2.60;99.90
59128;DHT22;44912;52.754;5.994;2024-01-27T08:03:41;2.80;99.90
59128;DHT22;44912;52.754;5.994;2024-01-27T08:06:10;2.90;99.90
59128;DHT22;44912;52.754;5.994;2024-01-27T08:08:36;2.80;99.90
59128;DHT22;44912;52.754;5.994;2024-01-27T08:11:02;3.00;99.90
59128;DHT22;44912;52.754;5.994;2024-01-27T08:13:28;2.90;99.90
59128;DHT22;44912;52.754;5.994;2024-01-27T08:15:54;2.90;99.90
59128;DHT22;44912;52.754;5.994;2024-01-27T08:18:19;3.10;99.90
59128;DHT22;44912;52.754;5.994;2024-01-27T08:20:45;3.10;99.90
59128;DHT22;44912;52.754;5.994;2024-01-27T08:23:11;3.30;99.90
59128;DHT22;44912;52.754;5.994;2024-01-27T08:25:36;3.20;99.90
59128;DHT22;44912;52.754;5.994;2024-01-27T08:28:03;3.30;99.90
59128;DHT22;44912;52.754;5.994;2024-01-27T08:30:29;3.30;99.90
59128;DHT22;44912;52.754;5.994;2024-01-27T08:32:55;3.40;99.90
59128;DHT22;44912;52.754;5.994;2024-01-27T08:35:21;3.50;99.90
59128;DHT22;44912;52.754;5.994;2024-01-27T08:37:47;3.50;99.90
59128;DHT22;44912;52.754;5.994;2024-01-27T08:40:12;3.50;99.90
59128;DHT22;44912;52.754;5.994;2024-01-27T08:42:39;3.60;99.90
59128;DHT22;44912;52.754;5.994;2024-01-27T08:45:05;3.80;99.90
59128;DHT22;44912;52.754;5.994;2024-01-27T08:47:31;3.80;99.90
59128;DHT22;44912;52.754;5.994;2024-01-27T08:49:57;3.90;99.90
59128;DHT22;44912;52.754;5.994;2024-01-27T08:52:23;3.80;99.90
59128;DHT22;44912;52.754;5.994;2024-01-27T08:54:48;3.90;99.90
59128;DHT22;44912;52.754;5.994;2024-01-27T08:57:14;3.80;99.90
59128;DHT22;44912;52.754;5.994;2024-01-27T08:59:40;4.00;99.90
59128;DHT22;44912;52.754;5.994;2024-01-27T09:02:05;4.00;99.90
59128;DHT22;44912;52.754;5.994;2024-01-27T09:04:31;4.40;99.90
59128;DHT22;44912;52.754;5.994;2024-01-27T09:06:56;4.50;99.90
59128;DHT22;44912;52.754;5.994;2024-01-27T09:09:22;4.50;99.90
59128;DHT22;44912;52.754;5.994;2024-01-27T09:11:48;4.60;99.90
59128;DHT22;44912;52.754;5.994;2024-01-27T09:14:15;4.80;99.90
59128;DHT22;44912;52.754;5.994;2024-01-27T09:16:41;5.10;99.90
59128;DHT22;44912;52.754;5.994;2024-01-27T09:19:07;5.10;99.90
59128;DHT22;44912;52.754;5.994;2024-01-27T09:21:33;5.30;99.90
59128;DHT22;44912;52.754;5.994;2024-01-27T09:23:59;5.50;99.90
59128;DHT22;44912;52.754;5.994;2024-01-27T09:26:27;5.60;99.90
59128;DHT22;44912;52.754;5.994;2024-01-27T09:28:52;5.40;99.90
59128;DHT22;44912;52.754;5.994;2024-01-27T09:31:24;5.40;99.90
59128;DHT22;44912;52.754;5.994;2024-01-27T09:33:53;5.40;99.90
59128;DHT22;44912;52.754;5.994;2024-01-27T09:36:20;5.40;99.90
59128;DHT22;44912;52.754;5.994;2024-01-27T09:38:46;5.50;99.90
59128;DHT22;44912;52.754;5.994;2024-01-27T09:41:13;5.60;99.90
59128;DHT22;44912;52.754;5.994;2024-01-27T09:43:43;5.70;99.90
59128;DHT22;44912;52.754;5.994;2024-01-27T09:46:16;5.70;99.90
59128;DHT22;44912;52.754;5.994;2024-01-27T09:48:43;5.90;99.90
59128;DHT22;44912;52.754;5.994;2024-01-27T09:51:10;5.90;99.90
59128;DHT22;44912;52.754;5.994;2024-01-27T09:53:36;5.90;99.90
59128;DHT22;44912;52.754;5.994;2024-01-27T09:56:02;6.00;99.90
59128;DHT22;44912;52.754;5.994;2024-01-27T09:58:29;6.10;99.90
59128;DHT22;44912;52.754;5.994;2024-01-27T10:01:00;6.00;99.90
59128;DHT22;44912;52.754;5.994;2024-01-27T10:03:27;6.10;99.90
59128;DHT22;44912;52.754;5.994;2024-01-27T10:05:53;6.30;99.90
59128;DHT22;44912;52.754;5.994;2024-01-27T10:08:20;6.30;99.90
59128;DHT22;44912;52.754;5.994;2024-01-27T10:10:47;6.50;99.90
59128;DHT22;44912;52.754;5.994;2024-01-27T10:13:14;6.40;99.90
59128;DHT22;44912;52.754;5.994;2024-01-27T10:15:42;6.50;99.90
59128;DHT22;44912;52.754;5.994;2024-01-27T10:18:08;6.70;99.90
59128;DHT22;44912;52.754;5.994;2024-01-27T10:20:39;6.60;99.90
59128;DHT22;44912;52.754;5.994;2024-01-27T10:23:13;6.70;99.90
59128;DHT22;44912;52.754;5.994;2024-01-27T10:25:40;6.70;99.90
59128;DHT22;44912;52.754;5.994;2024-01-27T10:28:08;6.70;99.90
59128;DHT22;44912;52.754;5.994;2024-01-27T10:30:35;6.70;99.90
59128;DHT22;44912;52.754;5.994;2024-01-27T10:33:01;6.80;99.90
59128;DHT22;44912;52.754;5.994;2024-01-27T10:35:27;6.80;99.90
59128;DHT22;44912;52.754;5.994;2024-01-27T10:37:53;7.00;99.90
59128;DHT22;44912;52.754;5.994;2024-01-27T10:40:20;7.00;99.90
59128;DHT22;44912;52.754;5.994;2024-01-27T10:42:46;7.00;99.90
59128;DHT22;44912;52.754;5.994;2024-01-27T10:45:12;7.00;99.90
59128;DHT22;44912;52.754;5.994;2024-01-27T10:47:39;7.00;99.90
59128;DHT22;44912;52.754;5.994;2024-01-27T10:50:08;7.10;99.90
59128;DHT22;44912;52.754;5.994;2024-01-27T10:52:38;7.20;99.90
59128;DHT22;44912;52.754;5.994;2024-01-27T10:55:05;7.20;99.90
59128;DHT22;44912;52.754;5.994;2024-01-27T10:57:37;7.10;99.90
59128;DHT22;44912;52.754;5.994;2024-01-27T11:00:04;7.20;99.90
59128;DHT22;44912;52.754;5.994;2024-01-27T11:02:33;7.20;99.90
59128;DHT22;44912;52.754;5.994;2024-01-27T11:05:01;7.30;99.90
59128;DHT22;44912;52.754;5.994;2024-01-27T11:07:28;7.30;99.90
59128;DHT22;44912;52.754;5.994;2024-01-27T11:09:54;7.40;99.90
59128;DHT22;44912;52.754;5.994;2024-01-27T11:12:21;7.30;99.90
59128;DHT22;44912;52.754;5.994;2024-01-27T11:14:47;7.30;99.90
59128;DHT22;44912;52.754;5.994;2024-01-27T11:17:14;7.30;99.90
59128;DHT22;44912;52.754;5.994;2024-01-27T11:19:41;7.30;99.90
59128;DHT22;44912;52.754;5.994;2024-01-27T11:22:06;7.30;99.90
59128;DHT22;44912;52.754;5.994;2024-01-27T11:24:32;7.40;99.90
59128;DHT22;44912;52.754;5.994;2024-01-27T11:27:05;7.30;99.90
59128;DHT22;44912;52.754;5.994;2024-01-27T11:29:32;7.30;99.90
59128;DHT22;44912;52.754;5.994;2024-01-27T11:32:02;7.30;99.90
59128;DHT22;44912;52.754;5.994;2024-01-27T11:34:40;7.40;99.90
59128;DHT22;44912;52.754;5.994;2024-01-27T11:37:11;7.30;99.90
59128;DHT22;44912;52.754;5.994;2024-01-27T11:39:37;7.40;99.90
59128;DHT22;44912;52.754;5.994;2024-01-27T11:42:07;7.40;99.90
59128;DHT22;44912;52.754;5.994;2024-01-27T11:44:37;7.50;99.90
59128;DHT22;44912;52.754;5.994;2024-01-27T11:47:03;7.50;99.90
59128;DHT22;44912;52.754;5.994;2024-01-27T11:49:29;7.50;99.90
59128;DHT22;44912;52.754;5.994;2024-01-27T11:51:55;7.60;99.90
59128;DHT22;44912;52.754;5.994;2024-01-27T11:54:21;7.70;99.90
59128;DHT22;44912;52.754;5.994;2024-01-27T11:56:46;7.50;99.90
59128;DHT22;44912;52.754;5.994;2024-01-27T11:59:12;7.60;99.90
59128;DHT22;44912;52.754;5.994;2024-01-27T12:01:38;7.60;99.90
59128;DHT22;44912;52.754;5.994;2024-01-27T12:04:04;7.80;99.90
59128;DHT22;44912;52.754;5.994;2024-01-27T12:06:30;7.70;99.90
59128;DHT22;44912;52.754;5.994;2024-01-27T12:08:56;7.80;99.90
59128;DHT22;44912;52.754;5.994;2024-01-27T12:11:24;7.80;99.90
59128;DHT22;44912;52.754;5.994;2024-01-27T12:13:50;7.90;99.90
59128;DHT22;44912;52.754;5.994;2024-01-27T12:16:15;7.90;99.90
59128;DHT22;44912;52.754;5.994;2024-01-27T12:18:41;7.90;99.90
59128;DHT22;44912;52.754;5.994;2024-01-27T12:21:07;7.90;99.90
59128;DHT22;44912;52.754;5.994;2024-01-27T12:23:32;8.00;99.90
59128;DHT22;44912;52.754;5.994;2024-01-27T12:25:58;8.00;99.90
59128;DHT22;44912;52.754;5.994;2024-01-27T12:28:24;8.00;99.90
59128;DHT22;44912;52.754;5.994;2024-01-27T12:30:53;8.00;99.90
59128;DHT22;44912;52.754;5.994;2024-01-27T12:33:19;8.00;99.90
59128;DHT22;44912;52.754;5.994;2024-01-27T12:35:49;8.00;99.90
59128;DHT22;44912;52.754;5.994;2024-01-27T12:38:16;8.00;99.90
59128;DHT22;44912;52.754;5.994;2024-01-27T12:40:42;8.10;99.90
59128;DHT22;44912;52.754;5.994;2024-01-27T12:43:08;8.00;99.90
59128;DHT22;44912;52.754;5.994;2024-01-27T12:45:34;8.10;99.90
59128;DHT22;44912;52.754;5.994;2024-01-27T12:48:00;8.20;99.90
59128;DHT22;44912;52.754;5.994;2024-01-27T12:50:27;8.20;99.90
59128;DHT22;44912;52.754;5.994;2024-01-27T12:52:53;8.30;99.90
59128;DHT22;44912;52.754;5.994;2024-01-27T12:55:19;8.30;99.90
59128;DHT22;44912;52.754;5.994;2024-01-27T12:57:46;8.20;99.90
59128;DHT22;44912;52.754;5.994;2024-01-27T13:00:13;8.30;99.90
59128;DHT22;44912;52.754;5.994;2024-01-27T13:02:40;8.30;99.90
59128;DHT22;44912;52.754;5.994;2024-01-27T13:05:06;8.40;99.90
59128;DHT22;44912;52.754;5.994;2024-01-27T13:07:32;8.40;99.90
59128;DHT22;44912;52.754;5.994;2024-01-27T13:09:57;8.30;99.90
59128;DHT22;44912;52.754;5.994;2024-01-27T13:12:23;8.30;99.90
59128;DHT22;44912;52.754;5.994;2024-01-27T13:14:49;8.40;99.90
59128;DHT22;44912;52.754;5.994;2024-01-27T13:17:14;8.40;99.90
59128;DHT22;44912;52.754;5.994;2024-01-27T13:19:43;8.40;99.90
59128;DHT22;44912;52.754;5.994;2024-01-27T13:22:09;8.50;99.90
59128;DHT22;44912;52.754;5.994;2024-01-27T13:24:34;8.50;99.90
59128;DHT22;44912;52.754;5.994;2024-01-27T13:27:01;8.50;99.90
59128;DHT22;44912;52.754;5.994;2024-01-27T13:29:27;8.50;99.90
59128;DHT22;44912;52.754;5.994;2024-01-27T13:31:52;8.40;99.90
59128;DHT22;44912;52.754;5.994;2024-01-27T13:34:18;8.40;99.90
59128;DHT22;44912;52.754;5.994;2024-01-27T13:36:44;8.50;99.90
59128;DHT22;44912;52.754;5.994;2024-01-27T13:39:10;8.50;99.90
59128;DHT22;44912;52.754;5.994;2024-01-27T13:41:35;8.40;99.90
59128;DHT22;44912;52.754;5.994;2024-01-27T13:44:01;8.40;99.90
59128;DHT22;44912;52.754;5.994;2024-01-27T13:46:27;8.40;99.90
59128;DHT22;44912;52.754;5.994;2024-01-27T13:48:53;8.40;99.90
59128;DHT22;44912;52.754;5.994;2024-01-27T13:51:18;8.40;99.90
59128;DHT22;44912;52.754;5.994;2024-01-27T13:53:44;8.30;99.90
59128;DHT22;44912;52.754;5.994;2024-01-27T13:56:10;8.30;99.90
59128;DHT22;44912;52.754;5.994;2024-01-27T13:58:35;8.40;99.90
59128;DHT22;44912;52.754;5.994;2024-01-27T14:01:01;8.40;99.90
59128;DHT22;44912;52.754;5.994;2024-01-27T14:03:27;8.40;99.90
59128;DHT22;44912;52.754;5.994;2024-01-27T14:05:52;8.30;99.90
59128;DHT22;44912;52.754;5.994;2024-01-27T14:08:18;8.40;99.90
59128;DHT22;44912;52.754;5.994;2024-01-27T14:10:44;8.30;99.90
59128;DHT22;44912;52.754;5.994;2024-01-27T14:13:10;8.30;99.90
59128;DHT22;44912;52.754;5.994;2024-01-27T14:15:37;8.30;99.90
59128;DHT22;44912;52.754;5.994;2024-01-27T14:18:03;8.30;99.90
59128;DHT22;44912;52.754;5.994;2024-01-27T14:20:32;8.20;99.90
59128;DHT22;44912;52.754;5.994;2024-01-27T14:23:00;8.30;99.90
59128;DHT22;44912;52.754;5.994;2024-01-27T14:25:25;8.20;99.90
59128;DHT22;44912;52.754;5.994;2024-01-27T14:27:51;8.20;99.90
59128;DHT22;44912;52.754;5.994;2024-01-27T14:30:17;8.10;99.90
59128;DHT22;44912;52.754;5.994;2024-01-27T14:32:42;8.10;99.90
59128;DHT22;44912;52.754;5.994;2024-01-27T14:35:09;8.10;99.90
59128;DHT22;44912;52.754;5.994;2024-01-27T14:37:35;8.10;99.90
59128;DHT22;44912;52.754;5.994;2024-01-27T14:40:01;8.00;99.90
59128;DHT22;44912;52.754;5.994;2024-01-27T14:42:26;8.00;99.90
59128;DHT22;44912;52.754;5.994;2024-01-27T14:44:52;8.10;99.90
59128;DHT22;44912;52.754;5.994;2024-01-27T14:47:21;8.00;99.90
59128;DHT22;44912;52.754;5.994;2024-01-27T14:49:47;8.00;99.90
59128;DHT22;44912;52.754;5.994;2024-01-27T14:52:13;7.90;99.90
59128;DHT22;44912;52.754;5.994;2024-01-27T14:54:39;7.90;99.90
59128;DHT22;44912;52.754;5.994;2024-01-27T14:57:05;7.90;99.90
59128;DHT22;44912;52.754;5.994;2024-01-27T14:59:34;7.90;99.90
59128;DHT22;44912;52.754;5.994;2024-01-27T15:02:00;7.90;99.90
59128;DHT22;44912;52.754;5.994;2024-01-27T15:04:27;7.90;99.90
59128;DHT22;44912;52.754;5.994;2024-01-27T15:06:53;7.90;99.90
59128;DHT22;44912;52.754;5.994;2024-01-27T15:09:19;8.00;99.90
59128;DHT22;44912;52.754;5.994;2024-01-27T15:11:45;7.90;99.90
59128;DHT22;44912;52.754;5.994;2024-01-27T15:14:10;7.90;99.90
59128;DHT22;44912;52.754;5.994;2024-01-27T15:16:36;7.80;99.90
59128;DHT22;44912;52.754;5.994;2024-01-27T15:19:02;7.80;99.90
59128;DHT22;44912;52.754;5.994;2024-01-27T15:21:28;7.80;99.90
59128;DHT22;44912;52.754;5.994;2024-01-27T15:23:56;7.70;99.90
59128;DHT22;44912;52.754;5.994;2024-01-27T15:26:21;7.70;99.90
59128;DHT22;44912;52.754;5.994;2024-01-27T15:28:48;7.60;99.90
59128;DHT22;44912;52.754;5.994;2024-01-27T15:31:13;7.50;99.90
59128;DHT22;44912;52.754;5.994;2024-01-27T15:33:40;7.50;99.90
59128;DHT22;44912;52.754;5.994;2024-01-27T15:36:06;7.40;99.90
59128;DHT22;44912;52.754;5.994;2024-01-27T15:38:32;7.40;99.90